< < Back
Terminal Aerodrome Forecast


Current Version              Previous Versions:   1  2  3  4  5  6  7  8  9  

Terminal Aerodrome Forecast

780
FTUS42 KJAX 252325
TAFGNV
TAF
KGNV 252325Z 2600/2624 VRB03KT P6SM FEW030 BKN250
     FM260700 VRB03KT P6SM SCT010
      TEMPO 2608/2612 3SM BR BKN010
     FM261400 01005KT P6SM VCSH SCT020 BKN030=

Latest METAR

688
SAUS70 KWBC 260000 RRM
MTRGNV
METAR KGNV 252353Z 08005KT 10SM CLR 27/22 A2999 RMK AO2 LTG DSNT S AND
SW SLP153 T02670222 10333 20267 53008


USA.gov is the U.S. government's official web portal to all federal, state and local government web resources and services.